HAZ1138 ZSHC-ZUUU
Flight info
| Callsign | HAZ1138 |
|---|---|
| Flight time | 2h 48m |
| Altitude | 38100 |
| Route | NIVIK5E NIVIK W135 DOGVI W545 VEMEX W73 MADUK W51 LEGIV W164 ADGOL W50 XSH W80 URGEG W231 EKOKA EKOKA9M |
| Aircraft | A20N/M-SDE2E3FGHIRWXY/LB1 |
Departure
| Time | 2026-05-06 06:40 |
|---|---|
| Airport | Hangzhou Xiaoshan International Airport (ZSHC) |
Arrival
| Time | 2026-05-06 09:29 |
|---|---|
| Airport | Chengdu Shuangliu International Airport (ZUUU) |
| Time | Latitude | Longitude | Altitude | Speed | Heading |
|---|---|---|---|---|---|
| 2026-05-06 06:00 | 30.23523 | 120.41496 | 41 ft | 0 kts | 152° |
| 2026-05-06 06:30 | 30.23532 | 120.41490 | 41 ft | 2 kts | 141° |
| 2026-05-06 06:30 | 30.23543 | 120.41478 | 41 ft | 2 kts | 127° |
| 2026-05-06 06:30 | 30.23550 | 120.41463 | 41 ft | 2 kts | 111° |
| 2026-05-06 06:31 | 30.23555 | 120.41446 | 41 ft | 2 kts | 97° |
| 2026-05-06 06:31 | 30.23555 | 120.41428 | 41 ft | 2 kts | 82° |
| 2026-05-06 06:31 | 30.23551 | 120.41412 | 41 ft | 2 kts | 67° |
| 2026-05-06 06:31 | 30.23548 | 120.41404 | 41 ft | 1 kts | 60° |
| 2026-05-06 06:32 | 30.23547 | 120.41402 | 41 ft | 0 kts | 62° |
| 2026-05-06 06:34 | 30.23549 | 120.41405 | 41 ft | 1 kts | 61° |
| 2026-05-06 06:34 | 30.23556 | 120.41413 | 41 ft | 1 kts | 32° |
| 2026-05-06 06:34 | 30.23574 | 120.41417 | 41 ft | 3 kts | 358° |
| 2026-05-06 06:34 | 30.23600 | 120.41408 | 41 ft | 4 kts | 336° |
| 2026-05-06 06:35 | 30.23627 | 120.41393 | 41 ft | 4 kts | 335° |
| 2026-05-06 06:35 | 30.23661 | 120.41375 | 41 ft | 5 kts | 334° |
| 2026-05-06 06:35 | 30.23701 | 120.41351 | 41 ft | 7 kts | 332° |
| 2026-05-06 06:35 | 30.23729 | 120.41303 | 41 ft | 7 kts | 279° |
| 2026-05-06 06:36 | 30.23710 | 120.41239 | 41 ft | 8 kts | 246° |
| 2026-05-06 06:36 | 30.23682 | 120.41169 | 41 ft | 9 kts | 240° |
| 2026-05-06 06:36 | 30.23646 | 120.41097 | 41 ft | 10 kts | 242° |
| 2026-05-06 06:36 | 30.23612 | 120.41019 | 41 ft | 10 kts | 246° |
| 2026-05-06 06:37 | 30.23640 | 120.40951 | 41 ft | 10 kts | 332° |
| 2026-05-06 06:37 | 30.23706 | 120.40911 | 41 ft | 6 kts | 333° |
| 2026-05-06 06:37 | 30.23727 | 120.40898 | 41 ft | 0 kts | 333° |
| 2026-05-06 06:38 | 30.23732 | 120.40895 | 41 ft | 1 kts | 333° |
| 2026-05-06 06:38 | 30.23746 | 120.40887 | 41 ft | 2 kts | 333° |
| 2026-05-06 06:38 | 30.23769 | 120.40874 | 41 ft | 4 kts | 333° |
| 2026-05-06 06:39 | 30.23801 | 120.40858 | 41 ft | 5 kts | 347° |
| 2026-05-06 06:39 | 30.23838 | 120.40876 | 41 ft | 6 kts | 57° |
| 2026-05-06 06:39 | 30.23862 | 120.40927 | 41 ft | 7 kts | 62° |
| 2026-05-06 06:39 | 30.23889 | 120.40987 | 41 ft | 9 kts | 62° |
| 2026-05-06 06:40 | 30.23980 | 120.41193 | 41 ft | 61 kts | 63° |
| 2026-05-06 06:40 | 30.24284 | 120.41885 | 38 ft | 127 kts | 63° |
| 2026-05-06 06:40 | 30.24781 | 120.42989 | 128 ft | 169 kts | 64° |
| 2026-05-06 06:40 | 30.25324 | 120.44228 | 626 ft | 173 kts | 66° |
| 2026-05-06 06:41 | 30.25857 | 120.45448 | 1303 ft | 170 kts | 65° |
| 2026-05-06 06:41 | 30.26393 | 120.46661 | 1953 ft | 171 kts | 65° |
| 2026-05-06 06:41 | 30.26963 | 120.47957 | 2388 ft | 185 kts | 65° |
| 2026-05-06 06:41 | 30.27582 | 120.49367 | 2707 ft | 200 kts | 65° |
| 2026-05-06 06:42 | 30.28241 | 120.50861 | 3094 ft | 212 kts | 64° |
| 2026-05-06 06:42 | 30.28945 | 120.52457 | 3414 ft | 232 kts | 64° |
| 2026-05-06 06:42 | 30.29722 | 120.54218 | 3756 ft | 253 kts | 64° |
| 2026-05-06 06:42 | 30.30551 | 120.56097 | 4231 ft | 269 kts | 64° |
| 2026-05-06 06:43 | 30.31414 | 120.58048 | 4949 ft | 275 kts | 64° |
| 2026-05-06 06:43 | 30.32122 | 120.60111 | 5719 ft | 278 kts | 83° |
| 2026-05-06 06:43 | 30.31956 | 120.62344 | 6474 ft | 279 kts | 111° |
| 2026-05-06 06:43 | 30.30923 | 120.64217 | 7169 ft | 282 kts | 137° |
| 2026-05-06 06:44 | 30.29259 | 120.65447 | 7635 ft | 285 kts | 155° |
| 2026-05-06 06:44 | 30.27455 | 120.66447 | 7782 ft | 286 kts | 155° |
| 2026-05-06 06:44 | 30.25632 | 120.67468 | 7793 ft | 286 kts | 155° |
| 2026-05-06 06:44 | 30.23842 | 120.68494 | 7800 ft | 285 kts | 154° |
| 2026-05-06 06:45 | 30.22021 | 120.69495 | 7785 ft | 284 kts | 162° |
| 2026-05-06 06:45 | 30.20077 | 120.69703 | 7769 ft | 282 kts | 193° |
| 2026-05-06 06:45 | 30.18291 | 120.68787 | 7779 ft | 281 kts | 220° |
| 2026-05-06 06:45 | 30.17062 | 120.67033 | 7786 ft | 280 kts | 243° |
| 2026-05-06 06:46 | 30.16197 | 120.64995 | 7782 ft | 279 kts | 244° |
| 2026-05-06 06:46 | 30.15323 | 120.62937 | 7793 ft | 280 kts | 244° |
| 2026-05-06 06:46 | 30.14450 | 120.60923 | 7790 ft | 279 kts | 243° |
| 2026-05-06 06:46 | 30.13545 | 120.58864 | 7779 ft | 280 kts | 243° |
| 2026-05-06 06:47 | 30.12663 | 120.56867 | 7788 ft | 279 kts | 243° |
| 2026-05-06 06:47 | 30.11754 | 120.54815 | 7792 ft | 280 kts | 243° |
| 2026-05-06 06:47 | 30.10864 | 120.52806 | 7793 ft | 280 kts | 243° |
| 2026-05-06 06:47 | 30.09956 | 120.50760 | 7791 ft | 280 kts | 243° |
| 2026-05-06 06:48 | 30.09063 | 120.48749 | 7781 ft | 280 kts | 243° |
| 2026-05-06 06:48 | 30.08173 | 120.46744 | 7789 ft | 280 kts | 243° |
| 2026-05-06 06:48 | 30.07268 | 120.44708 | 7799 ft | 280 kts | 243° |
| 2026-05-06 06:48 | 30.06393 | 120.42673 | 7786 ft | 280 kts | 249° |
| 2026-05-06 06:49 | 30.06122 | 120.40460 | 7774 ft | 280 kts | 278° |
| 2026-05-06 06:49 | 30.06808 | 120.38370 | 7781 ft | 282 kts | 305° |
| 2026-05-06 06:49 | 30.08281 | 120.36835 | 7790 ft | 284 kts | 330° |
| 2026-05-06 06:49 | 30.10055 | 120.35815 | 7787 ft | 284 kts | 333° |
| 2026-05-06 06:50 | 30.11866 | 120.34792 | 7792 ft | 284 kts | 332° |
| 2026-05-06 06:50 | 30.13652 | 120.33764 | 7794 ft | 284 kts | 332° |
| 2026-05-06 06:50 | 30.15444 | 120.32722 | 7797 ft | 284 kts | 332° |
| 2026-05-06 06:50 | 30.17217 | 120.31683 | 7800 ft | 284 kts | 332° |
| 2026-05-06 06:51 | 30.19001 | 120.30634 | 7797 ft | 284 kts | 332° |
| 2026-05-06 06:51 | 30.20757 | 120.29599 | 7797 ft | 284 kts | 332° |
| 2026-05-06 06:51 | 30.22537 | 120.28548 | 7803 ft | 284 kts | 332° |
| 2026-05-06 06:51 | 30.24338 | 120.27485 | 7793 ft | 285 kts | 332° |
| 2026-05-06 06:52 | 30.26126 | 120.26430 | 7800 ft | 285 kts | 332° |
| 2026-05-06 06:52 | 30.27900 | 120.25381 | 7785 ft | 285 kts | 332° |
| 2026-05-06 06:52 | 30.29678 | 120.24328 | 7801 ft | 285 kts | 332° |
| 2026-05-06 06:52 | 30.31453 | 120.23276 | 7795 ft | 285 kts | 332° |
| 2026-05-06 06:53 | 30.33247 | 120.22260 | 7788 ft | 286 kts | 334° |
| 2026-05-06 06:53 | 30.35093 | 120.21323 | 7778 ft | 286 kts | 335° |
| 2026-05-06 06:53 | 30.36959 | 120.20392 | 7790 ft | 285 kts | 335° |
| 2026-05-06 06:53 | 30.38800 | 120.19473 | 7797 ft | 285 kts | 335° |
| 2026-05-06 06:54 | 30.40630 | 120.18558 | 7788 ft | 285 kts | 335° |
| 2026-05-06 06:54 | 30.42448 | 120.17646 | 7779 ft | 285 kts | 335° |
| 2026-05-06 06:54 | 30.44278 | 120.16727 | 7788 ft | 285 kts | 335° |
| 2026-05-06 06:54 | 30.46116 | 120.15804 | 7788 ft | 285 kts | 335° |
| 2026-05-06 06:55 | 30.47921 | 120.14820 | 7773 ft | 284 kts | 330° |
| 2026-05-06 06:55 | 30.49615 | 120.13618 | 7838 ft | 288 kts | 324° |
| 2026-05-06 06:55 | 30.51288 | 120.12227 | 8472 ft | 293 kts | 322° |
| 2026-05-06 06:55 | 30.52914 | 120.10847 | 9393 ft | 290 kts | 322° |
| 2026-05-06 06:56 | 30.54549 | 120.09457 | 10166 ft | 292 kts | 322° |
| 2026-05-06 06:56 | 30.56232 | 120.08027 | 10653 ft | 304 kts | 322° |
| 2026-05-06 06:56 | 30.57986 | 120.06538 | 10964 ft | 322 kts | 322° |
| 2026-05-06 06:56 | 30.59862 | 120.04946 | 11252 ft | 339 kts | 322° |
| 2026-05-06 06:57 | 30.61811 | 120.03295 | 11527 ft | 355 kts | 322° |
| 2026-05-06 06:57 | 30.63878 | 120.01543 | 11875 ft | 368 kts | 322° |
| 2026-05-06 06:57 | 30.65966 | 119.99773 | 12452 ft | 372 kts | 322° |
| 2026-05-06 06:57 | 30.68078 | 119.97981 | 13107 ft | 374 kts | 323° |
| 2026-05-06 06:58 | 30.70193 | 119.96187 | 13734 ft | 376 kts | 322° |
| 2026-05-06 06:58 | 30.72342 | 119.94363 | 14332 ft | 379 kts | 322° |
| 2026-05-06 06:58 | 30.74473 | 119.92553 | 14894 ft | 382 kts | 322° |
| 2026-05-06 06:58 | 30.76648 | 119.90703 | 15476 ft | 385 kts | 322° |
| 2026-05-06 06:59 | 30.78832 | 119.88837 | 16047 ft | 388 kts | 322° |
| 2026-05-06 06:59 | 30.80998 | 119.86981 | 16570 ft | 390 kts | 321° |
| 2026-05-06 06:59 | 30.83202 | 119.85088 | 17118 ft | 393 kts | 321° |
| 2026-05-06 06:59 | 30.85425 | 119.83178 | 17668 ft | 395 kts | 321° |
| 2026-05-06 07:00 | 30.87626 | 119.81284 | 18175 ft | 398 kts | 321° |
| 2026-05-06 07:00 | 30.89897 | 119.79331 | 18691 ft | 401 kts | 321° |
| 2026-05-06 07:00 | 30.92132 | 119.77407 | 19171 ft | 403 kts | 321° |
| 2026-05-06 07:00 | 30.94403 | 119.75452 | 19666 ft | 406 kts | 321° |
| 2026-05-06 07:01 | 30.96701 | 119.73473 | 20157 ft | 408 kts | 321° |
| 2026-05-06 07:01 | 30.98996 | 119.71494 | 20640 ft | 410 kts | 321° |
| 2026-05-06 07:01 | 31.01304 | 119.69503 | 21120 ft | 412 kts | 321° |
| 2026-05-06 07:01 | 31.03596 | 119.67524 | 21578 ft | 414 kts | 321° |
| 2026-05-06 07:02 | 31.05927 | 119.65511 | 22026 ft | 416 kts | 321° |
| 2026-05-06 07:02 | 31.08279 | 119.63478 | 22465 ft | 418 kts | 321° |
| 2026-05-06 07:02 | 31.10655 | 119.61423 | 22769 ft | 423 kts | 321° |
| 2026-05-06 07:02 | 31.13050 | 119.59349 | 23115 ft | 428 kts | 321° |
| 2026-05-06 07:03 | 31.15456 | 119.57265 | 23507 ft | 430 kts | 321° |
| 2026-05-06 07:03 | 31.17883 | 119.55161 | 23930 ft | 432 kts | 321° |
| 2026-05-06 07:03 | 31.20288 | 119.53075 | 24323 ft | 434 kts | 321° |
| 2026-05-06 07:03 | 31.22732 | 119.50957 | 24703 ft | 436 kts | 321° |
| 2026-05-06 07:04 | 31.25216 | 119.48804 | 25087 ft | 438 kts | 321° |
| 2026-05-06 07:04 | 31.27664 | 119.46680 | 25449 ft | 440 kts | 321° |
| 2026-05-06 07:04 | 31.30134 | 119.44534 | 25787 ft | 442 kts | 321° |
| 2026-05-06 07:04 | 31.32618 | 119.42373 | 26125 ft | 444 kts | 321° |
| 2026-05-06 07:05 | 31.35101 | 119.40211 | 26439 ft | 446 kts | 321° |
| 2026-05-06 07:05 | 31.37623 | 119.38015 | 26727 ft | 448 kts | 321° |
| 2026-05-06 07:05 | 31.40124 | 119.35834 | 27038 ft | 449 kts | 321° |
| 2026-05-06 07:05 | 31.42692 | 119.33594 | 27454 ft | 447 kts | 320° |
| 2026-05-06 07:06 | 31.45176 | 119.31426 | 27885 ft | 446 kts | 320° |
| 2026-05-06 07:06 | 31.47659 | 119.29253 | 28312 ft | 444 kts | 320° |
| 2026-05-06 07:06 | 31.50151 | 119.27076 | 28719 ft | 442 kts | 320° |
| 2026-05-06 07:06 | 31.52613 | 119.24922 | 29095 ft | 442 kts | 320° |
| 2026-05-06 07:07 | 31.55071 | 119.22772 | 29504 ft | 440 kts | 320° |
| 2026-05-06 07:07 | 31.57525 | 119.20616 | 29932 ft | 438 kts | 320° |
| 2026-05-06 07:07 | 31.59979 | 119.18439 | 30336 ft | 436 kts | 320° |
| 2026-05-06 07:07 | 31.62387 | 119.16299 | 30684 ft | 435 kts | 320° |
| 2026-05-06 07:08 | 31.64758 | 119.14110 | 31051 ft | 433 kts | 317° |
| 2026-05-06 07:08 | 31.67050 | 119.11800 | 31440 ft | 431 kts | 316° |
| 2026-05-06 07:08 | 31.69336 | 119.09450 | 31827 ft | 429 kts | 316° |
| 2026-05-06 07:08 | 31.71584 | 119.07144 | 32172 ft | 427 kts | 316° |
| 2026-05-06 07:09 | 31.73827 | 119.04849 | 32510 ft | 426 kts | 316° |
| 2026-05-06 07:09 | 31.76008 | 119.02494 | 32816 ft | 424 kts | 313° |
| 2026-05-06 07:09 | 31.77992 | 118.99940 | 33129 ft | 421 kts | 308° |
| 2026-05-06 07:09 | 31.79766 | 118.97208 | 33490 ft | 418 kts | 303° |
| 2026-05-06 07:10 | 31.81301 | 118.94331 | 33829 ft | 415 kts | 297° |
| 2026-05-06 07:10 | 31.82517 | 118.91251 | 34138 ft | 414 kts | 291° |
| 2026-05-06 07:10 | 31.83374 | 118.88020 | 34417 ft | 413 kts | 284° |
| 2026-05-06 07:10 | 31.83869 | 118.84675 | 34682 ft | 413 kts | 277° |
| 2026-05-06 07:11 | 31.83991 | 118.81335 | 34919 ft | 414 kts | 271° |
| 2026-05-06 07:11 | 31.83782 | 118.77919 | 35173 ft | 414 kts | 267° |
| 2026-05-06 07:11 | 31.83495 | 118.74528 | 35425 ft | 413 kts | 267° |
| 2026-05-06 07:11 | 31.83200 | 118.71192 | 35636 ft | 413 kts | 267° |
| 2026-05-06 07:12 | 31.82902 | 118.67829 | 35860 ft | 412 kts | 266° |
| 2026-05-06 07:12 | 31.82604 | 118.64485 | 36074 ft | 411 kts | 266° |
| 2026-05-06 07:12 | 31.82304 | 118.61138 | 36240 ft | 411 kts | 266° |
| 2026-05-06 07:12 | 31.82005 | 118.57797 | 36344 ft | 412 kts | 267° |
| 2026-05-06 07:13 | 31.81701 | 118.54408 | 36479 ft | 412 kts | 267° |
| 2026-05-06 07:13 | 31.81401 | 118.51060 | 36606 ft | 412 kts | 266° |
| 2026-05-06 07:13 | 31.81101 | 118.47726 | 36718 ft | 412 kts | 267° |
| 2026-05-06 07:13 | 31.80794 | 118.44338 | 36828 ft | 413 kts | 266° |
| 2026-05-06 07:14 | 31.80487 | 118.40958 | 36917 ft | 413 kts | 266° |
| 2026-05-06 07:14 | 31.79577 | 118.34252 | 37112 ft | 416 kts | 261° |
| 2026-05-06 07:14 | 31.78898 | 118.30939 | 37228 ft | 417 kts | 258° |
| 2026-05-06 07:15 | 31.78069 | 118.27654 | 37304 ft | 419 kts | 255° |
| 2026-05-06 07:15 | 31.75966 | 118.21230 | 37474 ft | 422 kts | 250° |
| 2026-05-06 07:16 | 31.73533 | 118.14872 | 37593 ft | 423 kts | 251° |
| 2026-05-06 07:16 | 31.71487 | 118.08350 | 37729 ft | 421 kts | 256° |
| 2026-05-06 07:17 | 31.70001 | 118.01753 | 37898 ft | 419 kts | 259° |
| 2026-05-06 07:17 | 31.68621 | 117.95062 | 37945 ft | 421 kts | 259° |
| 2026-05-06 07:18 | 31.67232 | 117.88338 | 37944 ft | 421 kts | 259° |
| 2026-05-06 07:18 | 31.65851 | 117.81664 | 37943 ft | 421 kts | 259° |
| 2026-05-06 07:19 | 31.64460 | 117.74957 | 37942 ft | 420 kts | 259° |
| 2026-05-06 07:19 | 31.63063 | 117.68240 | 37938 ft | 420 kts | 259° |
| 2026-05-06 07:20 | 31.61686 | 117.61646 | 37934 ft | 419 kts | 259° |
| 2026-05-06 07:20 | 31.60373 | 117.54966 | 37932 ft | 419 kts | 261° |
| 2026-05-06 07:21 | 31.59182 | 117.48271 | 37930 ft | 419 kts | 261° |
| 2026-05-06 07:21 | 31.57992 | 117.41584 | 37927 ft | 419 kts | 261° |
| 2026-05-06 07:22 | 31.56789 | 117.34849 | 37924 ft | 420 kts | 260° |
| 2026-05-06 07:22 | 31.55585 | 117.28127 | 37922 ft | 420 kts | 260° |
| 2026-05-06 07:23 | 31.54397 | 117.21402 | 37921 ft | 420 kts | 260° |
| 2026-05-06 07:23 | 31.53209 | 117.14676 | 37919 ft | 420 kts | 260° |
| 2026-05-06 07:24 | 31.52016 | 117.07961 | 37921 ft | 419 kts | 260° |
| 2026-05-06 07:24 | 31.50821 | 117.01253 | 37928 ft | 420 kts | 260° |
| 2026-05-06 07:25 | 31.49595 | 116.94539 | 37930 ft | 420 kts | 258° |
| 2026-05-06 07:25 | 31.47819 | 116.87985 | 37933 ft | 423 kts | 251° |
| 2026-05-06 07:26 | 31.45324 | 116.81747 | 37936 ft | 426 kts | 244° |
| 2026-05-06 07:26 | 31.42119 | 116.75887 | 37937 ft | 428 kts | 237° |
| 2026-05-06 07:27 | 31.38500 | 116.70302 | 37940 ft | 429 kts | 237° |
| 2026-05-06 07:27 | 31.34874 | 116.64740 | 37951 ft | 430 kts | 237° |
| 2026-05-06 07:28 | 31.31227 | 116.59164 | 37965 ft | 430 kts | 236° |
| 2026-05-06 07:28 | 31.25751 | 116.50834 | 37998 ft | 430 kts | 237° |
| 2026-05-06 07:29 | 31.22095 | 116.45277 | 38022 ft | 429 kts | 236° |
| 2026-05-06 07:29 | 31.18442 | 116.39732 | 38035 ft | 428 kts | 237° |
| 2026-05-06 07:30 | 31.14772 | 116.34165 | 38040 ft | 428 kts | 236° |
| 2026-05-06 07:30 | 31.11123 | 116.28638 | 38043 ft | 428 kts | 236° |
| 2026-05-06 07:31 | 31.07458 | 116.23102 | 38045 ft | 428 kts | 236° |
| 2026-05-06 07:31 | 31.03821 | 116.17610 | 38047 ft | 428 kts | 236° |
| 2026-05-06 07:32 | 31.00172 | 116.12110 | 38047 ft | 428 kts | 236° |
| 2026-05-06 07:32 | 30.96501 | 116.06582 | 38051 ft | 427 kts | 236° |
| 2026-05-06 07:33 | 30.92852 | 116.01090 | 38043 ft | 428 kts | 236° |
| 2026-05-06 07:33 | 30.89185 | 115.95576 | 38035 ft | 428 kts | 236° |
| 2026-05-06 07:34 | 30.85536 | 115.90104 | 38019 ft | 428 kts | 236° |
| 2026-05-06 07:34 | 30.81902 | 115.84606 | 38000 ft | 427 kts | 236° |
| 2026-05-06 07:35 | 30.78257 | 115.79084 | 37983 ft | 428 kts | 237° |
| 2026-05-06 07:35 | 30.74618 | 115.73567 | 37972 ft | 427 kts | 237° |
| 2026-05-06 07:36 | 30.70995 | 115.68086 | 37969 ft | 427 kts | 237° |
| 2026-05-06 07:36 | 30.67347 | 115.62575 | 37961 ft | 427 kts | 237° |
| 2026-05-06 07:37 | 30.63723 | 115.57104 | 37953 ft | 426 kts | 237° |
| 2026-05-06 07:37 | 30.60094 | 115.51632 | 37947 ft | 427 kts | 237° |
| 2026-05-06 07:38 | 30.56449 | 115.46146 | 37942 ft | 427 kts | 237° |
| 2026-05-06 07:38 | 30.52832 | 115.40707 | 37935 ft | 427 kts | 237° |
| 2026-05-06 07:39 | 30.49204 | 115.35221 | 37929 ft | 426 kts | 239° |
| 2026-05-06 07:39 | 30.46396 | 115.29258 | 37922 ft | 420 kts | 251° |
| 2026-05-06 07:40 | 30.44865 | 115.22750 | 37925 ft | 416 kts | 263° |
| 2026-05-06 07:40 | 30.44649 | 115.16052 | 37919 ft | 415 kts | 275° |
| 2026-05-06 07:41 | 30.45286 | 115.09405 | 37918 ft | 414 kts | 277° |
| 2026-05-06 07:41 | 30.45977 | 115.02743 | 37917 ft | 414 kts | 276° |
| 2026-05-06 07:42 | 30.46664 | 114.96093 | 37907 ft | 414 kts | 277° |
| 2026-05-06 07:42 | 30.47346 | 114.89440 | 37903 ft | 414 kts | 277° |
| 2026-05-06 07:43 | 30.48021 | 114.82814 | 37896 ft | 415 kts | 276° |
| 2026-05-06 07:43 | 30.48695 | 114.76183 | 37894 ft | 414 kts | 276° |
| 2026-05-06 07:44 | 30.49367 | 114.69527 | 37876 ft | 414 kts | 276° |
| 2026-05-06 07:44 | 30.50036 | 114.62852 | 37882 ft | 415 kts | 277° |
| 2026-05-06 07:45 | 30.50703 | 114.56191 | 37895 ft | 414 kts | 276° |
| 2026-05-06 07:45 | 30.51364 | 114.49536 | 37891 ft | 414 kts | 276° |
| 2026-05-06 07:46 | 30.52022 | 114.42879 | 37874 ft | 413 kts | 277° |
| 2026-05-06 07:46 | 30.52675 | 114.36234 | 37875 ft | 413 kts | 277° |
| 2026-05-06 07:47 | 30.53333 | 114.29506 | 37880 ft | 413 kts | 276° |
| 2026-05-06 07:47 | 30.53983 | 114.22829 | 37875 ft | 413 kts | 276° |
| 2026-05-06 07:48 | 30.54623 | 114.16124 | 37872 ft | 413 kts | 276° |
| 2026-05-06 07:48 | 30.55254 | 114.09470 | 37868 ft | 413 kts | 276° |
| 2026-05-06 07:49 | 30.55900 | 114.02840 | 37857 ft | 413 kts | 276° |
| 2026-05-06 07:49 | 30.56527 | 113.96177 | 37866 ft | 413 kts | 276° |
| 2026-05-06 07:50 | 30.57146 | 113.89483 | 37860 ft | 412 kts | 276° |
| 2026-05-06 07:50 | 30.57561 | 113.82874 | 37861 ft | 412 kts | 271° |
| 2026-05-06 07:51 | 30.57447 | 113.76182 | 37866 ft | 412 kts | 269° |
| 2026-05-06 07:51 | 30.57206 | 113.69520 | 37854 ft | 412 kts | 269° |
| 2026-05-06 07:52 | 30.56958 | 113.62845 | 37858 ft | 412 kts | 269° |
| 2026-05-06 07:52 | 30.56708 | 113.56208 | 37859 ft | 412 kts | 269° |
| 2026-05-06 07:53 | 30.56452 | 113.49548 | 37860 ft | 412 kts | 268° |
| 2026-05-06 07:53 | 30.56193 | 113.42889 | 37854 ft | 412 kts | 269° |
| 2026-05-06 07:54 | 30.55929 | 113.36218 | 37856 ft | 413 kts | 269° |
| 2026-05-06 07:54 | 30.55663 | 113.29559 | 37848 ft | 412 kts | 268° |
| 2026-05-06 07:55 | 30.55393 | 113.22875 | 37847 ft | 412 kts | 268° |
| 2026-05-06 07:55 | 30.55122 | 113.16252 | 37844 ft | 412 kts | 268° |
| 2026-05-06 07:56 | 30.54848 | 113.09615 | 37840 ft | 412 kts | 268° |
| 2026-05-06 07:56 | 30.54569 | 113.02933 | 37835 ft | 411 kts | 268° |
| 2026-05-06 07:57 | 30.54289 | 112.96287 | 37827 ft | 411 kts | 268° |
| 2026-05-06 07:57 | 30.54007 | 112.89683 | 37843 ft | 411 kts | 268° |
| 2026-05-06 07:58 | 30.53720 | 112.83045 | 37837 ft | 411 kts | 268° |
| 2026-05-06 07:58 | 30.53429 | 112.76416 | 37840 ft | 411 kts | 268° |
| 2026-05-06 07:59 | 30.53139 | 112.69797 | 37849 ft | 410 kts | 268° |
| 2026-05-06 07:59 | 30.52839 | 112.63123 | 37840 ft | 411 kts | 268° |
| 2026-05-06 08:00 | 30.52538 | 112.56469 | 37844 ft | 411 kts | 268° |
| 2026-05-06 08:00 | 30.52235 | 112.49865 | 37830 ft | 411 kts | 268° |
| 2026-05-06 08:01 | 30.51929 | 112.43262 | 37829 ft | 411 kts | 268° |
| 2026-05-06 08:01 | 30.51619 | 112.36616 | 37827 ft | 411 kts | 268° |
| 2026-05-06 08:02 | 30.51304 | 112.30006 | 37835 ft | 410 kts | 268° |
| 2026-05-06 08:02 | 30.50990 | 112.23398 | 37829 ft | 410 kts | 268° |
| 2026-05-06 08:03 | 30.50670 | 112.16776 | 37817 ft | 409 kts | 268° |
| 2026-05-06 08:03 | 30.50350 | 112.10216 | 37818 ft | 409 kts | 268° |
| 2026-05-06 08:04 | 30.50024 | 112.03602 | 37811 ft | 408 kts | 268° |
| 2026-05-06 08:04 | 30.49695 | 111.97031 | 37817 ft | 408 kts | 268° |
| 2026-05-06 08:05 | 30.49366 | 111.90440 | 37815 ft | 408 kts | 268° |
| 2026-05-06 08:05 | 30.49007 | 111.83895 | 37815 ft | 408 kts | 265° |
| 2026-05-06 08:06 | 30.47356 | 111.77563 | 37825 ft | 415 kts | 247° |
| 2026-05-06 08:06 | 30.43920 | 111.72149 | 37830 ft | 428 kts | 229° |
| 2026-05-06 08:07 | 30.38856 | 111.68226 | 37831 ft | 444 kts | 210° |
| 2026-05-06 08:07 | 30.32835 | 111.66126 | 37833 ft | 453 kts | 201° |
| 2026-05-06 08:08 | 30.26688 | 111.64305 | 37833 ft | 454 kts | 201° |
| 2026-05-06 08:08 | 30.20552 | 111.62490 | 37833 ft | 453 kts | 201° |
| 2026-05-06 08:09 | 30.14398 | 111.60667 | 37839 ft | 453 kts | 201° |
| 2026-05-06 08:09 | 30.08242 | 111.58842 | 37845 ft | 453 kts | 201° |
| 2026-05-06 08:10 | 30.02114 | 111.57025 | 37859 ft | 453 kts | 201° |
| 2026-05-06 08:10 | 29.95951 | 111.55201 | 37865 ft | 453 kts | 202° |
| 2026-05-06 08:11 | 29.89773 | 111.53374 | 37867 ft | 454 kts | 202° |
| 2026-05-06 08:11 | 29.83670 | 111.51417 | 37859 ft | 447 kts | 209° |
| 2026-05-06 08:12 | 29.78406 | 111.47876 | 37863 ft | 431 kts | 226° |
| 2026-05-06 08:12 | 29.74349 | 111.42907 | 37862 ft | 420 kts | 240° |
| 2026-05-06 08:13 | 29.71669 | 111.36998 | 37889 ft | 411 kts | 255° |
| 2026-05-06 08:13 | 29.70470 | 111.30639 | 37907 ft | 407 kts | 267° |
| 2026-05-06 08:14 | 29.70639 | 111.24115 | 37925 ft | 405 kts | 275° |
| 2026-05-06 08:14 | 29.71118 | 111.17628 | 37923 ft | 405 kts | 275° |
| 2026-05-06 08:15 | 29.71601 | 111.11150 | 37915 ft | 405 kts | 275° |
| 2026-05-06 08:15 | 29.72088 | 111.04652 | 37901 ft | 405 kts | 275° |
| 2026-05-06 08:16 | 29.72566 | 110.98211 | 37884 ft | 405 kts | 275° |
| 2026-05-06 08:16 | 29.73047 | 110.91708 | 37900 ft | 404 kts | 275° |
| 2026-05-06 08:17 | 29.73522 | 110.85265 | 37922 ft | 404 kts | 275° |
| 2026-05-06 08:17 | 29.73992 | 110.78808 | 37948 ft | 403 kts | 275° |
| 2026-05-06 08:18 | 29.74459 | 110.72348 | 37969 ft | 403 kts | 275° |
| 2026-05-06 08:18 | 29.74927 | 110.65874 | 37967 ft | 403 kts | 275° |
| 2026-05-06 08:19 | 29.75390 | 110.59390 | 37966 ft | 403 kts | 275° |
| 2026-05-06 08:19 | 29.75847 | 110.52949 | 37956 ft | 403 kts | 275° |
| 2026-05-06 08:20 | 29.76300 | 110.46547 | 37958 ft | 403 kts | 275° |
| 2026-05-06 08:20 | 29.76753 | 110.40062 | 37976 ft | 403 kts | 275° |
| 2026-05-06 08:21 | 29.77200 | 110.33621 | 38003 ft | 402 kts | 274° |
| 2026-05-06 08:21 | 29.77648 | 110.27148 | 38016 ft | 402 kts | 274° |
| 2026-05-06 08:22 | 29.78087 | 110.20754 | 38024 ft | 401 kts | 274° |
| 2026-05-06 08:22 | 29.78525 | 110.14323 | 38036 ft | 400 kts | 274° |
| 2026-05-06 08:23 | 29.78958 | 110.07901 | 38044 ft | 400 kts | 274° |
| 2026-05-06 08:23 | 29.79388 | 110.01492 | 38050 ft | 400 kts | 274° |
| 2026-05-06 08:24 | 29.79816 | 109.95039 | 38057 ft | 400 kts | 275° |
| 2026-05-06 08:24 | 29.80241 | 109.88648 | 38059 ft | 400 kts | 274° |
| 2026-05-06 08:25 | 29.80662 | 109.82227 | 38057 ft | 401 kts | 274° |
| 2026-05-06 08:25 | 29.81082 | 109.75790 | 38063 ft | 401 kts | 274° |
| 2026-05-06 08:26 | 29.81497 | 109.69373 | 38060 ft | 401 kts | 274° |
| 2026-05-06 08:26 | 29.81909 | 109.62931 | 38040 ft | 400 kts | 274° |
| 2026-05-06 08:27 | 29.82317 | 109.56528 | 38018 ft | 401 kts | 274° |
| 2026-05-06 08:27 | 29.82728 | 109.50050 | 37998 ft | 401 kts | 274° |
| 2026-05-06 08:28 | 29.83129 | 109.43630 | 37994 ft | 401 kts | 274° |
| 2026-05-06 08:28 | 29.83529 | 109.37203 | 37993 ft | 401 kts | 274° |
| 2026-05-06 08:29 | 29.83927 | 109.30763 | 37995 ft | 400 kts | 274° |
| 2026-05-06 08:29 | 29.84320 | 109.24347 | 37996 ft | 400 kts | 274° |
| 2026-05-06 08:30 | 29.84709 | 109.17933 | 38001 ft | 400 kts | 274° |
| 2026-05-06 08:30 | 29.85099 | 109.11486 | 38000 ft | 400 kts | 274° |
| 2026-05-06 08:31 | 29.85481 | 109.05080 | 37997 ft | 401 kts | 274° |
| 2026-05-06 08:31 | 29.85863 | 108.98649 | 37994 ft | 400 kts | 274° |
| 2026-05-06 08:32 | 29.86238 | 108.92259 | 37991 ft | 400 kts | 274° |
| 2026-05-06 08:32 | 29.86613 | 108.85845 | 37992 ft | 400 kts | 273° |
| 2026-05-06 08:33 | 29.86983 | 108.79439 | 37990 ft | 400 kts | 274° |
| 2026-05-06 08:33 | 29.87353 | 108.73007 | 37988 ft | 400 kts | 273° |
| 2026-05-06 08:34 | 29.87899 | 108.63347 | 37983 ft | 401 kts | 273° |
| 2026-05-06 08:35 | 29.88258 | 108.56921 | 37976 ft | 401 kts | 273° |
| 2026-05-06 08:35 | 29.88425 | 108.50494 | 37976 ft | 400 kts | 268° |
| 2026-05-06 08:36 | 29.88001 | 108.44080 | 37974 ft | 401 kts | 264° |
| 2026-05-06 08:36 | 29.87050 | 108.37753 | 37979 ft | 403 kts | 259° |
| 2026-05-06 08:37 | 29.85561 | 108.31448 | 37990 ft | 403 kts | 255° |
| 2026-05-06 08:37 | 29.83915 | 108.25242 | 38000 ft | 403 kts | 255° |
| 2026-05-06 08:38 | 29.82272 | 108.19099 | 38007 ft | 403 kts | 255° |
| 2026-05-06 08:38 | 29.80611 | 108.12895 | 37992 ft | 402 kts | 255° |
| 2026-05-06 08:39 | 29.78954 | 108.06740 | 37976 ft | 403 kts | 255° |
| 2026-05-06 08:39 | 29.77289 | 108.00561 | 37956 ft | 403 kts | 255° |
| 2026-05-06 08:40 | 29.75625 | 107.94407 | 37937 ft | 403 kts | 254° |
| 2026-05-06 08:40 | 29.73947 | 107.88230 | 37947 ft | 402 kts | 255° |
| 2026-05-06 08:41 | 29.72264 | 107.82053 | 37957 ft | 403 kts | 255° |
| 2026-05-06 08:41 | 29.70584 | 107.75896 | 37979 ft | 403 kts | 254° |
| 2026-05-06 08:42 | 29.68890 | 107.69707 | 37986 ft | 403 kts | 255° |
| 2026-05-06 08:42 | 29.67399 | 107.63470 | 37975 ft | 403 kts | 260° |
| 2026-05-06 08:43 | 29.66780 | 107.57077 | 37962 ft | 403 kts | 268° |
| 2026-05-06 08:43 | 29.67088 | 107.50645 | 37941 ft | 404 kts | 277° |
| 2026-05-06 08:44 | 29.68323 | 107.44295 | 37926 ft | 407 kts | 284° |
| 2026-05-06 08:44 | 29.69933 | 107.38030 | 37914 ft | 407 kts | 283° |
| 2026-05-06 08:45 | 29.71263 | 107.31684 | 37899 ft | 407 kts | 281° |
| 2026-05-06 08:45 | 29.72941 | 107.25436 | 37887 ft | 409 kts | 289° |
| 2026-05-06 08:46 | 29.75525 | 107.19578 | 37870 ft | 414 kts | 297° |
| 2026-05-06 08:46 | 29.79005 | 107.14201 | 37867 ft | 420 kts | 306° |
| 2026-05-06 08:47 | 29.83221 | 107.09454 | 37871 ft | 424 kts | 311° |
| 2026-05-06 08:47 | 29.87593 | 107.04873 | 37874 ft | 424 kts | 311° |
| 2026-05-06 08:48 | 29.91950 | 107.00316 | 37884 ft | 423 kts | 311° |
| 2026-05-06 08:48 | 29.96344 | 106.95714 | 37884 ft | 423 kts | 311° |
| 2026-05-06 08:49 | 30.00707 | 106.91138 | 37896 ft | 425 kts | 311° |
| 2026-05-06 08:49 | 30.05111 | 106.86511 | 37898 ft | 425 kts | 311° |
| 2026-05-06 08:50 | 30.09497 | 106.81899 | 37898 ft | 425 kts | 311° |
| 2026-05-06 08:50 | 30.13916 | 106.77250 | 37907 ft | 425 kts | 311° |
| 2026-05-06 08:51 | 30.18288 | 106.72643 | 37901 ft | 425 kts | 311° |
| 2026-05-06 08:51 | 30.22681 | 106.68002 | 37894 ft | 425 kts | 311° |
| 2026-05-06 08:52 | 30.27055 | 106.63377 | 37899 ft | 425 kts | 311° |
| 2026-05-06 08:52 | 30.31399 | 106.58776 | 37893 ft | 425 kts | 311° |
| 2026-05-06 08:53 | 30.35777 | 106.54134 | 37900 ft | 426 kts | 311° |
| 2026-05-06 08:53 | 30.40171 | 106.49466 | 37897 ft | 426 kts | 311° |
| 2026-05-06 08:54 | 30.44524 | 106.44836 | 37910 ft | 425 kts | 311° |
| 2026-05-06 08:54 | 30.48897 | 106.40179 | 37904 ft | 425 kts | 311° |
| 2026-05-06 08:55 | 30.53264 | 106.35523 | 37905 ft | 424 kts | 311° |
| 2026-05-06 08:55 | 30.57494 | 106.30738 | 37904 ft | 421 kts | 307° |
| 2026-05-06 08:56 | 30.61236 | 106.25582 | 37905 ft | 418 kts | 301° |
| 2026-05-06 08:56 | 30.64519 | 106.20043 | 37906 ft | 414 kts | 298° |
| 2026-05-06 08:57 | 30.67654 | 106.14362 | 37901 ft | 415 kts | 297° |
| 2026-05-06 08:57 | 30.70473 | 106.08538 | 37903 ft | 410 kts | 289° |
| 2026-05-06 08:58 | 30.72195 | 106.02265 | 37904 ft | 405 kts | 279° |
| 2026-05-06 08:58 | 30.72777 | 105.95782 | 37905 ft | 403 kts | 269° |
| 2026-05-06 08:59 | 30.72257 | 105.89311 | 37905 ft | 402 kts | 261° |
| 2026-05-06 08:59 | 30.71368 | 105.82845 | 37906 ft | 403 kts | 261° |
| 2026-05-06 09:00 | 30.70467 | 105.76429 | 37906 ft | 402 kts | 261° |
| 2026-05-06 09:00 | 30.70006 | 105.73181 | 37766 ft | 404 kts | 261° |
| 2026-05-06 09:00 | 30.69552 | 105.69990 | 37490 ft | 402 kts | 261° |
| 2026-05-06 09:00 | 30.69097 | 105.66790 | 37217 ft | 400 kts | 261° |
| 2026-05-06 09:01 | 30.68640 | 105.63605 | 36939 ft | 398 kts | 261° |
| 2026-05-06 09:01 | 30.68187 | 105.60425 | 36670 ft | 397 kts | 261° |
| 2026-05-06 09:01 | 30.67731 | 105.57252 | 36402 ft | 397 kts | 261° |
| 2026-05-06 09:01 | 30.67281 | 105.54111 | 36131 ft | 398 kts | 261° |
| 2026-05-06 09:02 | 30.66824 | 105.50931 | 35860 ft | 400 kts | 261° |
| 2026-05-06 09:02 | 30.66364 | 105.47723 | 35583 ft | 401 kts | 261° |
| 2026-05-06 09:02 | 30.65903 | 105.44531 | 35312 ft | 401 kts | 261° |
| 2026-05-06 09:02 | 30.65439 | 105.41323 | 35039 ft | 403 kts | 261° |
| 2026-05-06 09:03 | 30.64974 | 105.38112 | 34774 ft | 404 kts | 261° |
| 2026-05-06 09:03 | 30.64500 | 105.34847 | 34494 ft | 405 kts | 261° |
| 2026-05-06 09:03 | 30.63991 | 105.31628 | 34215 ft | 407 kts | 258° |
| 2026-05-06 09:03 | 30.63265 | 105.28421 | 33941 ft | 409 kts | 254° |
| 2026-05-06 09:04 | 30.62322 | 105.25314 | 33663 ft | 412 kts | 250° |
| 2026-05-06 09:04 | 30.61143 | 105.22240 | 33388 ft | 414 kts | 245° |
| 2026-05-06 09:04 | 30.59748 | 105.19276 | 33000 ft | 419 kts | 241° |
| 2026-05-06 09:04 | 30.58151 | 105.16464 | 32493 ft | 423 kts | 237° |
| 2026-05-06 09:05 | 30.56339 | 105.13785 | 31958 ft | 427 kts | 233° |
| 2026-05-06 09:05 | 30.54397 | 105.11145 | 31339 ft | 430 kts | 232° |
| 2026-05-06 09:05 | 30.52415 | 105.08478 | 30721 ft | 432 kts | 232° |
| 2026-05-06 09:05 | 30.50444 | 105.05838 | 30113 ft | 434 kts | 232° |
| 2026-05-06 09:06 | 30.48454 | 105.03177 | 29504 ft | 436 kts | 232° |
| 2026-05-06 09:06 | 30.46462 | 105.00516 | 28898 ft | 439 kts | 232° |
| 2026-05-06 09:06 | 30.44464 | 104.97843 | 28302 ft | 442 kts | 232° |
| 2026-05-06 09:06 | 30.42441 | 104.95139 | 27701 ft | 444 kts | 232° |
| 2026-05-06 09:07 | 30.40571 | 104.92293 | 27091 ft | 444 kts | 238° |
| 2026-05-06 09:07 | 30.39002 | 104.89183 | 26491 ft | 443 kts | 245° |
| 2026-05-06 09:07 | 30.37785 | 104.85934 | 25893 ft | 439 kts | 251° |
| 2026-05-06 09:07 | 30.36800 | 104.82591 | 25297 ft | 436 kts | 252° |
| 2026-05-06 09:08 | 30.35869 | 104.79293 | 24709 ft | 434 kts | 252° |
| 2026-05-06 09:08 | 30.34935 | 104.75964 | 24110 ft | 431 kts | 252° |
| 2026-05-06 09:08 | 30.34004 | 104.72650 | 23514 ft | 428 kts | 252° |
| 2026-05-06 09:08 | 30.33085 | 104.69390 | 22928 ft | 426 kts | 252° |
| 2026-05-06 09:09 | 30.32174 | 104.66170 | 22341 ft | 424 kts | 252° |
| 2026-05-06 09:09 | 30.31256 | 104.62941 | 21749 ft | 421 kts | 252° |
| 2026-05-06 09:09 | 30.30340 | 104.59723 | 21158 ft | 419 kts | 252° |
| 2026-05-06 09:09 | 30.29423 | 104.56504 | 20562 ft | 416 kts | 252° |
| 2026-05-06 09:10 | 30.28569 | 104.53347 | 19976 ft | 414 kts | 255° |
| 2026-05-06 09:10 | 30.27928 | 104.50088 | 19392 ft | 412 kts | 259° |
| 2026-05-06 09:10 | 30.27541 | 104.46805 | 18804 ft | 410 kts | 264° |
| 2026-05-06 09:10 | 30.27351 | 104.43521 | 18228 ft | 409 kts | 266° |
| 2026-05-06 09:11 | 30.27202 | 104.40219 | 17659 ft | 407 kts | 266° |
| 2026-05-06 09:11 | 30.27058 | 104.36974 | 17116 ft | 405 kts | 266° |
| 2026-05-06 09:11 | 30.26907 | 104.33701 | 16567 ft | 403 kts | 266° |
| 2026-05-06 09:11 | 30.26755 | 104.30471 | 16002 ft | 399 kts | 266° |
| 2026-05-06 09:12 | 30.26603 | 104.27293 | 15463 ft | 395 kts | 266° |
| 2026-05-06 09:12 | 30.26451 | 104.24167 | 14929 ft | 391 kts | 266° |
| 2026-05-06 09:12 | 30.26297 | 104.21019 | 14356 ft | 387 kts | 266° |
| 2026-05-06 09:12 | 30.26145 | 104.17936 | 13808 ft | 384 kts | 266° |
| 2026-05-06 09:13 | 30.25993 | 104.14857 | 13244 ft | 381 kts | 267° |
| 2026-05-06 09:13 | 30.25937 | 104.11798 | 12650 ft | 378 kts | 274° |
| 2026-05-06 09:13 | 30.26347 | 104.08812 | 12093 ft | 374 kts | 286° |
| 2026-05-06 09:13 | 30.27198 | 104.05954 | 11518 ft | 371 kts | 293° |
| 2026-05-06 09:14 | 30.28164 | 104.03226 | 10952 ft | 369 kts | 295° |
| 2026-05-06 09:14 | 30.29147 | 104.00478 | 10363 ft | 367 kts | 295° |
| 2026-05-06 09:14 | 30.29684 | 103.97544 | 9743 ft | 375 kts | 273° |
| 2026-05-06 09:14 | 30.29111 | 103.94591 | 9165 ft | 382 kts | 246° |
| 2026-05-06 09:15 | 30.27523 | 103.92168 | 8594 ft | 383 kts | 220° |
| 2026-05-06 09:15 | 30.25194 | 103.90710 | 8020 ft | 377 kts | 193° |
| 2026-05-06 09:15 | 30.22602 | 103.90512 | 7580 ft | 362 kts | 169° |
| 2026-05-06 09:15 | 30.20124 | 103.90767 | 7449 ft | 350 kts | 178° |
| 2026-05-06 09:16 | 30.17758 | 103.90249 | 7321 ft | 342 kts | 195° |
| 2026-05-06 09:16 | 30.15558 | 103.89290 | 7196 ft | 330 kts | 200° |
| 2026-05-06 09:16 | 30.13473 | 103.88252 | 7063 ft | 318 kts | 201° |
| 2026-05-06 09:16 | 30.11469 | 103.87191 | 6941 ft | 308 kts | 210° |
| 2026-05-06 09:17 | 30.09970 | 103.85474 | 6789 ft | 296 kts | 245° |
| 2026-05-06 09:17 | 30.09514 | 103.83283 | 6658 ft | 273 kts | 281° |
| 2026-05-06 09:17 | 30.10127 | 103.81356 | 6530 ft | 243 kts | 316° |
| 2026-05-06 09:17 | 30.11204 | 103.79928 | 6425 ft | 231 kts | 317° |
| 2026-05-06 09:18 | 30.12160 | 103.78418 | 6299 ft | 227 kts | 311° |
| 2026-05-06 09:18 | 30.13135 | 103.77151 | 6248 ft | 193 kts | 338° |
| 2026-05-06 09:18 | 30.14291 | 103.76790 | 6096 ft | 156 kts | 7° |
| 2026-05-06 09:18 | 30.15312 | 103.76931 | 5990 ft | 144 kts | 19° |
| 2026-05-06 09:19 | 30.16280 | 103.77248 | 5879 ft | 145 kts | 24° |
| 2026-05-06 09:19 | 30.17241 | 103.77632 | 5754 ft | 145 kts | 25° |
| 2026-05-06 09:19 | 30.18209 | 103.78037 | 5625 ft | 145 kts | 25° |
| 2026-05-06 09:19 | 30.19152 | 103.78440 | 5502 ft | 145 kts | 25° |
| 2026-05-06 09:20 | 30.20102 | 103.78854 | 5378 ft | 144 kts | 25° |
| 2026-05-06 09:20 | 30.21045 | 103.79271 | 5257 ft | 144 kts | 25° |
| 2026-05-06 09:20 | 30.21990 | 103.79695 | 5158 ft | 144 kts | 25° |
| 2026-05-06 09:20 | 30.22924 | 103.80120 | 5035 ft | 143 kts | 25° |
| 2026-05-06 09:21 | 30.23845 | 103.80544 | 4913 ft | 142 kts | 25° |
| 2026-05-06 09:21 | 30.24771 | 103.80972 | 4794 ft | 142 kts | 25° |
| 2026-05-06 09:21 | 30.25691 | 103.81402 | 4669 ft | 142 kts | 25° |
| 2026-05-06 09:21 | 30.26619 | 103.81837 | 4538 ft | 141 kts | 24° |
| 2026-05-06 09:22 | 30.27545 | 103.82272 | 4412 ft | 141 kts | 24° |
| 2026-05-06 09:22 | 30.28464 | 103.82704 | 4285 ft | 141 kts | 25° |
| 2026-05-06 09:22 | 30.29370 | 103.83131 | 4161 ft | 140 kts | 24° |
| 2026-05-06 09:22 | 30.30279 | 103.83559 | 4046 ft | 140 kts | 24° |
| 2026-05-06 09:23 | 30.31193 | 103.83989 | 3963 ft | 139 kts | 23° |
| 2026-05-06 09:23 | 30.32092 | 103.84412 | 3955 ft | 139 kts | 23° |
| 2026-05-06 09:23 | 30.33002 | 103.84838 | 3955 ft | 140 kts | 23° |
| 2026-05-06 09:23 | 30.33921 | 103.85268 | 3952 ft | 139 kts | 24° |
| 2026-05-06 09:24 | 30.34837 | 103.85697 | 3948 ft | 139 kts | 23° |
| 2026-05-06 09:24 | 30.35759 | 103.86128 | 3945 ft | 139 kts | 23° |
| 2026-05-06 09:24 | 30.36674 | 103.86555 | 3947 ft | 139 kts | 23° |
| 2026-05-06 09:24 | 30.37588 | 103.86981 | 3948 ft | 139 kts | 23° |
| 2026-05-06 09:25 | 30.38507 | 103.87409 | 3949 ft | 139 kts | 22° |
| 2026-05-06 09:25 | 30.39438 | 103.87843 | 3949 ft | 139 kts | 22° |
| 2026-05-06 09:25 | 30.40344 | 103.88264 | 3954 ft | 139 kts | 22° |
| 2026-05-06 09:25 | 30.41262 | 103.88692 | 3839 ft | 140 kts | 22° |
| 2026-05-06 09:26 | 30.42165 | 103.89113 | 3657 ft | 139 kts | 22° |
| 2026-05-06 09:26 | 30.43067 | 103.89532 | 3476 ft | 138 kts | 21° |
| 2026-05-06 09:26 | 30.43959 | 103.89948 | 3297 ft | 138 kts | 21° |
| 2026-05-06 09:26 | 30.44851 | 103.90364 | 3124 ft | 137 kts | 20° |
| 2026-05-06 09:27 | 30.45740 | 103.90779 | 2950 ft | 137 kts | 20° |
| 2026-05-06 09:27 | 30.46644 | 103.91200 | 2769 ft | 137 kts | 21° |
| 2026-05-06 09:27 | 30.47543 | 103.91617 | 2594 ft | 136 kts | 22° |
| 2026-05-06 09:27 | 30.48445 | 103.92036 | 2420 ft | 136 kts | 22° |
| 2026-05-06 09:28 | 30.49350 | 103.92452 | 2241 ft | 135 kts | 23° |
| 2026-05-06 09:28 | 30.50232 | 103.92859 | 2075 ft | 136 kts | 22° |
| 2026-05-06 09:28 | 30.51125 | 103.93270 | 1884 ft | 133 kts | 22° |
| 2026-05-06 09:28 | 30.52009 | 103.93692 | 1726 ft | 132 kts | 23° |
| 2026-05-06 09:29 | 30.52839 | 103.94080 | 1689 ft | 110 kts | 22° |
| 2026-05-06 09:29 | 30.53396 | 103.94340 | 1689 ft | 59 kts | 22° |
| 2026-05-06 09:29 | 30.53645 | 103.94453 | 1689 ft | 28 kts | 14° |
| 2026-05-06 09:29 | 30.53841 | 103.94465 | 1689 ft | 26 kts | 355° |
| 2026-05-06 09:30 | 30.54019 | 103.94437 | 1689 ft | 24 kts | 355° |
| 2026-05-06 09:30 | 30.54178 | 103.94479 | 1689 ft | 22 kts | 22° |
| 2026-05-06 09:30 | 30.54323 | 103.94547 | 1689 ft | 21 kts | 23° |
| 2026-05-06 09:30 | 30.54461 | 103.94611 | 1689 ft | 20 kts | 21° |
| 2026-05-06 09:31 | 30.54593 | 103.94672 | 1689 ft | 20 kts | 22° |
| 2026-05-06 09:31 | 30.54722 | 103.94736 | 1689 ft | 19 kts | 22° |
| 2026-05-06 09:31 | 30.54834 | 103.94732 | 1689 ft | 16 kts | 303° |
| 2026-05-06 09:31 | 30.54910 | 103.94637 | 1689 ft | 16 kts | 337° |
| 2026-05-06 09:32 | 30.55019 | 103.94586 | 1689 ft | 16 kts | 335° |
| 2026-05-06 09:32 | 30.55125 | 103.94529 | 1689 ft | 16 kts | 336° |
| 2026-05-06 09:32 | 30.55234 | 103.94476 | 1689 ft | 16 kts | 338° |
| 2026-05-06 09:32 | 30.55342 | 103.94421 | 1689 ft | 17 kts | 336° |
| 2026-05-06 09:33 | 30.55483 | 103.94353 | 1689 ft | 25 kts | 337° |
| 2026-05-06 09:33 | 30.55668 | 103.94261 | 1689 ft | 28 kts | 336° |
| 2026-05-06 09:33 | 30.55852 | 103.94205 | 1689 ft | 26 kts | 5° |
| 2026-05-06 09:33 | 30.56018 | 103.94271 | 1689 ft | 25 kts | 21° |
| 2026-05-06 09:34 | 30.56211 | 103.94363 | 1689 ft | 32 kts | 23° |
| 2026-05-06 09:34 | 30.56397 | 103.94447 | 1689 ft | 26 kts | 22° |
| 2026-05-06 09:34 | 30.56568 | 103.94527 | 1689 ft | 25 kts | 21° |
| 2026-05-06 09:34 | 30.56730 | 103.94602 | 1689 ft | 23 kts | 22° |
| 2026-05-06 09:35 | 30.56882 | 103.94668 | 1689 ft | 22 kts | 13° |
| 2026-05-06 09:35 | 30.57027 | 103.94709 | 1689 ft | 18 kts | 20° |
| 2026-05-06 09:35 | 30.57144 | 103.94765 | 1689 ft | 17 kts | 22° |
| 2026-05-06 09:35 | 30.57223 | 103.94824 | 1689 ft | 12 kts | 81° |
| 2026-05-06 09:36 | 30.57190 | 103.94907 | 1689 ft | 11 kts | 110° |
| 2026-05-06 09:36 | 30.57163 | 103.94984 | 1689 ft | 9 kts | 112° |
| 2026-05-06 09:36 | 30.57119 | 103.95010 | 1689 ft | 8 kts | 193° |
| 2026-05-06 09:36 | 30.57089 | 103.94998 | 1689 ft | 2 kts | 201° |
| 2026-05-06 09:37 | 30.57085 | 103.94997 | 1689 ft | 0 kts | 201° |